Custer, SD

12:56 AM MDT on August 23, 2014 (GMT -0600)
Rapid City | Change Station
CLOSE
Current Station
Airport
Location: Rapid City,
Elevation: 3166 ft
Nearby Weather Stations
Active Advisory: Areal Flood Watch

Elev 3166 ft 44.05 °N, 103.06 °W | Updated 4 minutes ago

Light Rain
Light Rain
66 °F
Feels Like 66 °F
N
12
Wind Variable Wind from East

Today
High -- | Low -- °F
--% Chance of Precip.
Yesterday
High -- | Low -- °F
Precip. -- in
6:08 AM 7:45 PM
Waning Crescent, 5% visible
Pressure 29.89 in
Visibility 10.0 miles
Clouds Scattered Clouds 6000 ft
Mostly Cloudy 7500 ft
Overcast 9000 ft
Dew Point 64 °F
Humidity 93%
Rainfall 0.00 in
Snow Depth Not available.
UV 0 out of 12
Pollen 9.60 out of 12
Air Quality Not available.
Flu Activity Not available.
METAR KRAP 230652Z AUTO 09010KT 10SM -RA SCT060 BKN075 OVC090 19/18 A2996 RMK AO2 RAB48 SLP122 P0000 T01890178 402500161

More Conditions Fewer Conditions

Pressure 29.89 in
Visibility 10.0 miles
Clouds Scattered Clouds 6000 ft
Mostly Cloudy 7500 ft
Overcast 9000 ft
Dew Point 64 °F
Humidity 93%
Rainfall 0.00 in
Snow Depth Not available.
UV 0 out of 12
Pollen 9.60 out of 12
Air Quality Not available.
Flu Activity Not available.
METAR KRAP 230652Z AUTO 09010KT 10SM -RA SCT060 BKN075 OVC090 19/18 A2996 RMK AO2 RAB48 SLP122 P0000 T01890178 402500161

More Conditions Fewer Conditions

10-Day Weather Forecast

Almanac

Astronomy

Aug. 23, 2014 Rise Set
Actual Time 6:08 AM MDT 7:45 PM MDT
Civil Twilight 5:37 AM MDT 8:15 PM MDT
Nautical Twilight 5:00 AM MDT 8:52 PM MDT
Astronomical Twilight 4:21 AM MDT 9:31 PM MDT
Moon 4:25 AM MDT 6:31 PM MDT
Length of Visible Light 14h 37m
Length of Day
13h 37m
Tomorrow will be 2m 48s shorter.
Waning Crescent, 5% of the Moon is Illuminated
Today
Waning Crescent
Aug 25
New
Sep 2
First Quarter
Sep 8
Full
Sep 15
Last Quarter

Today's Extremes

State Highs State Lows

Community

WunderPhotos

Upload Photos

1,746,371 photos uploaded!

WunderBlogs® & News

By Dr. Jeff Masters
Director of Meteorology, Weather Underground
By Kari Strenfel
Meteorologist, Weather Underground
By Christopher C. Burt
Weather Historian, Weather Underground
August 23, 2014
August 23, 2014
August 22, 2014

Nearby

Snow Depth

Station Depth Elevation
Blind Park 0 in 6890 ft
North Rapid Creek 0 in 6130 ft

Earthquake Activity

City Distance Mag. Time & Date
No recent earthquake activity has been reported nearby.
Minimum magnitude displayed is 2.5.

Coastal Water Temperatures

Place Temperature
No Stations Reporting

Nearby Weather Stations